sensor_id;sensor_type;location;lat;lon;timestamp;pressure;altitude;pressure_sealevel;temperature;humidity
22649;BME280;11491;41.942;24.220;2023-02-28T00:00:49;90272.41;;;5.21;82.75
22649;BME280;11491;41.942;24.220;2023-02-28T00:03:16;90269.28;;;5.19;83.20
22649;BME280;11491;41.942;24.220;2023-02-28T00:05:43;90272.41;;;5.21;82.69
22649;BME280;11491;41.942;24.220;2023-02-28T00:08:10;90271.28;;;5.13;82.80
22649;BME280;11491;41.942;24.220;2023-02-28T00:10:37;90268.50;;;5.18;83.30
22649;BME280;11491;41.942;24.220;2023-02-28T00:13:05;90269.03;;;5.07;83.32
22649;BME280;11491;41.942;24.220;2023-02-28T00:15:34;90266.22;;;5.03;83.37
22649;BME280;11491;41.942;24.220;2023-02-28T00:18:01;90268.81;;;5.17;83.13
22649;BME280;11491;41.942;24.220;2023-02-28T00:20:28;90274.00;;;5.22;83.07
22649;BME280;11491;41.942;24.220;2023-02-28T00:22:55;90278.22;;;5.23;81.26
22649;BME280;11491;41.942;24.220;2023-02-28T00:25:24;90276.78;;;5.17;81.63
22649;BME280;11491;41.942;24.220;2023-02-28T00:27:51;90276.41;;;5.10;81.65
22649;BME280;11491;41.942;24.220;2023-02-28T00:30:19;90271.75;;;4.93;82.67
22649;BME280;11491;41.942;24.220;2023-02-28T00:32:48;90274.13;;;4.94;83.00
22649;BME280;11491;41.942;24.220;2023-02-28T00:35:17;90278.44;;;4.90;82.95
22649;BME280;11491;41.942;24.220;2023-02-28T00:37:44;90280.97;;;4.95;83.00
22649;BME280;11491;41.942;24.220;2023-02-28T00:40:11;90276.00;;;4.80;83.21
22649;BME280;11491;41.942;24.220;2023-02-28T00:42:38;90279.63;;;4.84;83.54
22649;BME280;11491;41.942;24.220;2023-02-28T00:45:06;90269.81;;;4.85;83.12
22649;BME280;11491;41.942;24.220;2023-02-28T00:47:34;90266.38;;;4.84;83.15
22649;BME280;11491;41.942;24.220;2023-02-28T00:50:03;90267.22;;;4.93;82.42
22649;BME280;11491;41.942;24.220;2023-02-28T00:52:30;90261.56;;;4.86;82.51
22649;BME280;11491;41.942;24.220;2023-02-28T00:54:57;90273.13;;;4.90;83.01
22649;BME280;11491;41.942;24.220;2023-02-28T00:57:23;90262.13;;;4.97;81.85
22649;BME280;11491;41.942;24.220;2023-02-28T00:59:50;90266.25;;;4.89;81.31
22649;BME280;11491;41.942;24.220;2023-02-28T01:02:19;90264.28;;;4.95;81.79
22649;BME280;11491;41.942;24.220;2023-02-28T01:04:47;90263.91;;;4.88;81.54
22649;BME280;11491;41.942;24.220;2023-02-28T01:07:15;90263.38;;;4.77;81.81
22649;BME280;11491;41.942;24.220;2023-02-28T01:09:42;90262.78;;;4.80;81.59
22649;BME280;11491;41.942;24.220;2023-02-28T01:12:08;90265.38;;;4.58;82.18
22649;BME280;11491;41.942;24.220;2023-02-28T01:14:35;90262.94;;;4.47;83.22
22649;BME280;11491;41.942;24.220;2023-02-28T01:17:02;90265.19;;;4.54;83.12
22649;BME280;11491;41.942;24.220;2023-02-28T01:19:29;90267.75;;;4.45;83.10
22649;BME280;11491;41.942;24.220;2023-02-28T01:21:56;90267.00;;;4.31;84.87
22649;BME280;11491;41.942;24.220;2023-02-28T01:24:24;90270.03;;;3.97;88.23
22649;BME280;11491;41.942;24.220;2023-02-28T01:26:50;90267.41;;;4.10;87.56
22649;BME280;11491;41.942;24.220;2023-02-28T01:29:17;90274.16;;;4.17;86.65
22649;BME280;11491;41.942;24.220;2023-02-28T01:31:44;90271.91;;;4.24;86.10
22649;BME280;11491;41.942;24.220;2023-02-28T01:34:11;90269.13;;;4.29;85.85
22649;BME280;11491;41.942;24.220;2023-02-28T01:36:37;90271.69;;;4.34;85.72
22649;BME280;11491;41.942;24.220;2023-02-28T01:39:04;90269.91;;;4.43;84.54
22649;BME280;11491;41.942;24.220;2023-02-28T01:41:33;90266.66;;;4.46;84.17
22649;BME280;11491;41.942;24.220;2023-02-28T01:44:05;90268.19;;;4.25;84.33
22649;BME280;11491;41.942;24.220;2023-02-28T01:46:34;90272.66;;;4.24;85.33
22649;BME280;11491;41.942;24.220;2023-02-28T01:49:07;90282.88;;;4.31;84.24
22649;BME280;11491;41.942;24.220;2023-02-28T01:51:39;90283.03;;;4.48;83.88
22649;BME280;11491;41.942;24.220;2023-02-28T01:54:14;90284.81;;;4.39;83.06
22649;BME280;11491;41.942;24.220;2023-02-28T01:56:47;90285.13;;;4.24;83.89
22649;BME280;11491;41.942;24.220;2023-02-28T01:59:19;90275.63;;;4.23;83.69
22649;BME280;11491;41.942;24.220;2023-02-28T02:01:48;90286.72;;;4.25;83.67
22649;BME280;11491;41.942;24.220;2023-02-28T02:04:15;90302.09;;;4.23;84.05
22649;BME280;11491;41.942;24.220;2023-02-28T02:06:44;90290.72;;;4.08;84.16
22649;BME280;11491;41.942;24.220;2023-02-28T02:09:12;90298.38;;;4.24;83.33
22649;BME280;11491;41.942;24.220;2023-02-28T02:11:40;90294.66;;;4.25;82.89
22649;BME280;11491;41.942;24.220;2023-02-28T02:14:22;90306.00;;;4.12;83.68
22649;BME280;11491;41.942;24.220;2023-02-28T02:17:12;90309.34;;;4.03;83.58
22649;BME280;11491;41.942;24.220;2023-02-28T02:25:25;90306.31;;;4.10;84.42
22649;BME280;11491;41.942;24.220;2023-02-28T02:30:46;90313.94;;;3.84;83.77
22649;BME280;11491;41.942;24.220;2023-02-28T02:33:28;90314.63;;;3.76;84.61
22649;BME280;11491;41.942;24.220;2023-02-28T02:36:07;90306.88;;;3.65;84.74
22649;BME280;11491;41.942;24.220;2023-02-28T02:38:41;90315.00;;;3.69;85.41
22649;BME280;11491;41.942;24.220;2023-02-28T02:41:14;90326.75;;;3.77;85.54
22649;BME280;11491;41.942;24.220;2023-02-28T02:43:47;90316.59;;;3.84;84.73
22649;BME280;11491;41.942;24.220;2023-02-28T02:46:19;90322.28;;;3.91;84.11
22649;BME280;11491;41.942;24.220;2023-02-28T02:48:48;90328.66;;;3.90;84.07
22649;BME280;11491;41.942;24.220;2023-02-28T02:51:19;90329.34;;;3.96;84.83
22649;BME280;11491;41.942;24.220;2023-02-28T02:53:49;90322.47;;;3.95;84.15
22649;BME280;11491;41.942;24.220;2023-02-28T02:56:20;90321.88;;;3.84;85.11
22649;BME280;11491;41.942;24.220;2023-02-28T02:58:51;90340.88;;;4.00;83.90
22649;BME280;11491;41.942;24.220;2023-02-28T03:01:21;90334.63;;;3.96;84.65
22649;BME280;11491;41.942;24.220;2023-02-28T03:03:54;90338.94;;;4.05;84.56
22649;BME280;11491;41.942;24.220;2023-02-28T03:06:22;90329.94;;;4.06;83.54
22649;BME280;11491;41.942;24.220;2023-02-28T03:08:49;90339.44;;;4.07;84.20
22649;BME280;11491;41.942;24.220;2023-02-28T03:11:16;90342.34;;;3.92;84.08
22649;BME280;11491;41.942;24.220;2023-02-28T03:16:38;90335.63;;;4.14;83.58
22649;BME280;11491;41.942;24.220;2023-02-28T03:19:21;90343.97;;;4.21;82.13
22649;BME280;11491;41.942;24.220;2023-02-28T03:22:01;90341.88;;;4.04;83.16
22649;BME280;11491;41.942;24.220;2023-02-28T03:24:33;90351.69;;;4.03;83.26
22649;BME280;11491;41.942;24.220;2023-02-28T03:27:06;90352.59;;;4.13;82.97
22649;BME280;11491;41.942;24.220;2023-02-28T03:29:35;90354.84;;;4.05;83.07
22649;BME280;11491;41.942;24.220;2023-02-28T03:32:07;90361.28;;;3.99;83.79
22649;BME280;11491;41.942;24.220;2023-02-28T03:34:42;90356.56;;;3.96;83.59
22649;BME280;11491;41.942;24.220;2023-02-28T03:37:18;90351.47;;;4.00;84.18
22649;BME280;11491;41.942;24.220;2023-02-28T03:39:50;90352.69;;;4.07;84.45
22649;BME280;11491;41.942;24.220;2023-02-28T03:42:23;90351.50;;;4.14;83.80
22649;BME280;11491;41.942;24.220;2023-02-28T03:44:53;90363.63;;;4.15;84.05
22649;BME280;11491;41.942;24.220;2023-02-28T03:47:26;90347.38;;;4.07;84.13
22649;BME280;11491;41.942;24.220;2023-02-28T03:49:57;90367.97;;;4.24;82.31
22649;BME280;11491;41.942;24.220;2023-02-28T03:52:31;90373.84;;;4.07;82.91
22649;BME280;11491;41.942;24.220;2023-02-28T03:55:03;90372.63;;;4.00;83.44
22649;BME280;11491;41.942;24.220;2023-02-28T03:57:35;90383.63;;;4.07;83.28
22649;BME280;11491;41.942;24.220;2023-02-28T04:00:06;90380.88;;;3.98;84.04
22649;BME280;11491;41.942;24.220;2023-02-28T04:02:35;90384.03;;;4.00;84.83
22649;BME280;11491;41.942;24.220;2023-02-28T04:05:02;90372.16;;;3.98;84.46
22649;BME280;11491;41.942;24.220;2023-02-28T04:07:31;90386.19;;;3.98;85.10
22649;BME280;11491;41.942;24.220;2023-02-28T04:09:58;90373.44;;;4.14;83.68
22649;BME280;11491;41.942;24.220;2023-02-28T04:12:25;90382.03;;;3.92;84.13
22649;BME280;11491;41.942;24.220;2023-02-28T04:14:52;90387.00;;;3.80;85.31
22649;BME280;11491;41.942;24.220;2023-02-28T04:17:19;90388.91;;;3.93;85.98
22649;BME280;11491;41.942;24.220;2023-02-28T04:19:45;90386.59;;;4.05;85.21
22649;BME280;11491;41.942;24.220;2023-02-28T04:22:12;90388.91;;;3.93;85.68
22649;BME280;11491;41.942;24.220;2023-02-28T04:24:41;90387.72;;;3.99;85.98
22649;BME280;11491;41.942;24.220;2023-02-28T04:27:08;90377.97;;;4.14;84.91
22649;BME280;11491;41.942;24.220;2023-02-28T04:29:36;90391.09;;;4.19;84.20
22649;BME280;11491;41.942;24.220;2023-02-28T04:32:03;90380.47;;;3.91;84.97
22649;BME280;11491;41.942;24.220;2023-02-28T04:34:31;90386.91;;;3.85;85.49
22649;BME280;11491;41.942;24.220;2023-02-28T04:36:58;90380.38;;;3.96;85.92
22649;BME280;11491;41.942;24.220;2023-02-28T04:39:25;90390.28;;;4.04;85.79
22649;BME280;11491;41.942;24.220;2023-02-28T04:41:54;90379.16;;;4.07;84.77
22649;BME280;11491;41.942;24.220;2023-02-28T04:44:20;90388.16;;;4.06;86.08
22649;BME280;11491;41.942;24.220;2023-02-28T04:46:48;90382.75;;;4.12;85.37
22649;BME280;11491;41.942;24.220;2023-02-28T04:49:15;90371.47;;;4.06;84.98
22649;BME280;11491;41.942;24.220;2023-02-28T04:51:42;90389.31;;;4.00;84.86
22649;BME280;11491;41.942;24.220;2023-02-28T04:54:09;90383.63;;;3.93;86.09
22649;BME280;11491;41.942;24.220;2023-02-28T04:56:36;90388.91;;;3.93;86.40
22649;BME280;11491;41.942;24.220;2023-02-28T04:59:04;90388.50;;;4.00;86.61
22649;BME280;11491;41.942;24.220;2023-02-28T05:01:32;90386.59;;;4.05;85.76
22649;BME280;11491;41.942;24.220;2023-02-28T05:04:00;90392.28;;;4.13;85.86
22649;BME280;11491;41.942;24.220;2023-02-28T05:06:30;90390.09;;;4.15;85.51
22649;BME280;11491;41.942;24.220;2023-02-28T05:08:58;90390.50;;;4.08;85.81
22649;BME280;11491;41.942;24.220;2023-02-28T05:11:26;90390.28;;;4.04;85.48
22649;BME280;11491;41.942;24.220;2023-02-28T05:13:54;90393.03;;;3.99;85.56
22649;BME280;11491;41.942;24.220;2023-02-28T05:16:22;90394.03;;;4.03;85.34
22649;BME280;11491;41.942;24.220;2023-02-28T05:18:49;90401.88;;;4.08;85.05
22649;BME280;11491;41.942;24.220;2023-02-28T05:21:27;90401.88;;;4.08;85.34
22649;BME280;11491;41.942;24.220;2023-02-28T05:23:55;90396.00;;;4.12;85.34
22649;BME280;11491;41.942;24.220;2023-02-28T05:26:22;90399.72;;;4.10;85.70
22649;BME280;11491;41.942;24.220;2023-02-28T05:28:49;90400.09;;;4.04;85.61
22649;BME280;11491;41.942;24.220;2023-02-28T05:31:16;90403.66;;;4.27;84.87
22649;BME280;11491;41.942;24.220;2023-02-28T05:33:44;90406.03;;;4.28;84.16
22649;BME280;11491;41.942;24.220;2023-02-28T05:36:11;90404.44;;;4.14;84.92
22649;BME280;11491;41.942;24.220;2023-02-28T05:38:38;90410.31;;;4.24;84.83
22649;BME280;11491;41.942;24.220;2023-02-28T05:41:06;90412.00;;;4.20;85.21
22649;BME280;11491;41.942;24.220;2023-02-28T05:43:33;90414.19;;;3.99;86.17
22649;BME280;11491;41.942;24.220;2023-02-28T05:46:02;90425.19;;;4.06;86.96
22649;BME280;11491;41.942;24.220;2023-02-28T05:48:29;90425.78;;;4.17;86.66
22649;BME280;11491;41.942;24.220;2023-02-28T05:50:58;90432.31;;;4.25;86.41
22649;BME280;11491;41.942;24.220;2023-02-28T05:53:25;90426.41;;;4.28;86.84
22649;BME280;11491;41.942;24.220;2023-02-28T05:55:52;90432.53;;;4.42;87.24
22649;BME280;11491;41.942;24.220;2023-02-28T05:58:19;90425.84;;;4.59;86.43
22649;BME280;11491;41.942;24.220;2023-02-28T06:00:46;90419.94;;;4.62;86.22
22649;BME280;11491;41.942;24.220;2023-02-28T06:03:13;90431.94;;;4.73;86.39
22649;BME280;11491;41.942;24.220;2023-02-28T06:05:40;90429.38;;;4.82;85.71
22649;BME280;11491;41.942;24.220;2023-02-28T06:08:08;90434.28;;;4.88;85.70
22649;BME280;11491;41.942;24.220;2023-02-28T06:10:35;90435.84;;;4.89;85.44
22649;BME280;11491;41.942;24.220;2023-02-28T06:13:02;90441.06;;;4.94;85.93
22649;BME280;11491;41.942;24.220;2023-02-28T06:15:29;90442.91;;;5.08;85.95
22649;BME280;11491;41.942;24.220;2023-02-28T06:17:56;90441.31;;;5.21;85.15
22649;BME280;11491;41.942;24.220;2023-02-28T06:20:24;90445.00;;;5.33;83.56
22649;BME280;11491;41.942;24.220;2023-02-28T06:22:54;90438.22;;;5.41;83.27
22649;BME280;11491;41.942;24.220;2023-02-28T06:25:23;90452.22;;;5.55;83.36
22649;BME280;11491;41.942;24.220;2023-02-28T06:27:49;90454.59;;;5.57;83.24
22649;BME280;11491;41.942;24.220;2023-02-28T06:30:16;90452.38;;;5.73;83.14
22649;BME280;11491;41.942;24.220;2023-02-28T06:32:43;90447.03;;;5.87;83.15
22649;BME280;11491;41.942;24.220;2023-02-28T06:35:10;90452.03;;;6.11;82.20
22649;BME280;11491;41.942;24.220;2023-02-28T06:37:37;90453.19;;;6.18;81.26
22649;BME280;11491;41.942;24.220;2023-02-28T06:40:04;90462.47;;;6.30;82.29
22649;BME280;11491;41.942;24.220;2023-02-28T06:42:34;90452.69;;;6.39;82.15
22649;BME280;11491;41.942;24.220;2023-02-28T06:45:01;90462.19;;;6.62;81.65
22649;BME280;11491;41.942;24.220;2023-02-28T06:47:34;90461.19;;;6.81;81.40
22649;BME280;11491;41.942;24.220;2023-02-28T06:50:01;90454.22;;;7.02;81.43
22649;BME280;11491;41.942;24.220;2023-02-28T06:52:29;90464.91;;;7.20;81.19
22649;BME280;11491;41.942;24.220;2023-02-28T06:54:56;90469.00;;;7.26;81.62
22649;BME280;11491;41.942;24.220;2023-02-28T06:57:27;90465.91;;;7.41;81.70
22649;BME280;11491;41.942;24.220;2023-02-28T06:59:57;90458.44;;;7.61;80.55
22649;BME280;11491;41.942;24.220;2023-02-28T07:02:24;90460.00;;;7.79;79.69
22649;BME280;11491;41.942;24.220;2023-02-28T07:04:51;90460.47;;;7.90;79.75
22649;BME280;11491;41.942;24.220;2023-02-28T07:07:18;90465.94;;;8.11;80.58
22649;BME280;11491;41.942;24.220;2023-02-28T07:09:45;90457.31;;;8.31;79.89
22649;BME280;11491;41.942;24.220;2023-02-28T07:12:12;90450.56;;;8.51;79.51
22649;BME280;11491;41.942;24.220;2023-02-28T07:14:38;90455.25;;;8.63;78.91
22649;BME280;11491;41.942;24.220;2023-02-28T07:17:08;90453.91;;;8.87;77.91
22649;BME280;11491;41.942;24.220;2023-02-28T07:19:36;90447.59;;;9.00;77.22
22649;BME280;11491;41.942;24.220;2023-02-28T07:22:02;90451.34;;;8.99;76.50
22649;BME280;11491;41.942;24.220;2023-02-28T07:24:29;90438.97;;;8.94;76.74
22649;BME280;11491;41.942;24.220;2023-02-28T07:26:56;90444.09;;;9.08;76.79
22649;BME280;11491;41.942;24.220;2023-02-28T07:29:24;90444.03;;;9.25;77.40
22649;BME280;11491;41.942;24.220;2023-02-28T07:31:51;90443.28;;;9.46;76.02
22649;BME280;11491;41.942;24.220;2023-02-28T07:34:19;90450.09;;;9.64;75.39
22649;BME280;11491;41.942;24.220;2023-02-28T07:36:46;90445.22;;;9.87;74.43
22649;BME280;11491;41.942;24.220;2023-02-28T07:39:13;90440.06;;;10.03;73.48
22649;BME280;11491;41.942;24.220;2023-02-28T07:41:40;90446.78;;;10.09;72.59
22649;BME280;11491;41.942;24.220;2023-02-28T07:44:09;90448.69;;;10.30;72.14
22649;BME280;11491;41.942;24.220;2023-02-28T07:46:35;90441.63;;;10.46;72.08
22649;BME280;11491;41.942;24.220;2023-02-28T07:49:03;90437.44;;;10.70;72.05
22649;BME280;11491;41.942;24.220;2023-02-28T07:51:31;90447.09;;;10.83;70.16
22649;BME280;11491;41.942;24.220;2023-02-28T07:53:58;90444.09;;;10.97;70.06
22649;BME280;11491;41.942;24.220;2023-02-28T07:56:25;90444.91;;;11.22;69.70
22649;BME280;11491;41.942;24.220;2023-02-28T07:58:51;90435.66;;;11.44;68.63
22649;BME280;11491;41.942;24.220;2023-02-28T08:01:18;90432.19;;;11.56;67.07
22649;BME280;11491;41.942;24.220;2023-02-28T08:03:45;90441.78;;;11.69;68.57
22649;BME280;11491;41.942;24.220;2023-02-28T08:06:16;90443.13;;;11.75;68.01
22649;BME280;11491;41.942;24.220;2023-02-28T08:08:44;90454.03;;;11.95;67.98
22649;BME280;11491;41.942;24.220;2023-02-28T08:11:11;90446.19;;;12.14;66.68
22649;BME280;11491;41.942;24.220;2023-02-28T08:13:38;90452.22;;;12.11;66.15
22649;BME280;11491;41.942;24.220;2023-02-28T08:16:05;90447.59;;;12.24;65.65
22649;BME280;11491;41.942;24.220;2023-02-28T08:18:32;90448.59;;;12.32;65.93
22649;BME280;11491;41.942;24.220;2023-02-28T08:20:59;90454.88;;;12.52;65.93
22649;BME280;11491;41.942;24.220;2023-02-28T08:23:25;90446.78;;;12.36;65.05
22649;BME280;11491;41.942;24.220;2023-02-28T08:25:54;90442.59;;;12.22;65.30
22649;BME280;11491;41.942;24.220;2023-02-28T08:28:21;90447.38;;;12.29;66.41
22649;BME280;11491;41.942;24.220;2023-02-28T08:30:48;90435.50;;;12.42;66.19
22649;BME280;11491;41.942;24.220;2023-02-28T08:33:15;90436.47;;;12.50;65.06
22649;BME280;11491;41.942;24.220;2023-02-28T08:35:42;90432.06;;;12.58;65.01
22649;BME280;11491;41.942;24.220;2023-02-28T08:38:08;90431.59;;;12.40;64.64
22649;BME280;11491;41.942;24.220;2023-02-28T08:40:35;90421.47;;;12.21;65.78
22649;BME280;11491;41.942;24.220;2023-02-28T08:43:03;90424.44;;;12.32;64.79
22649;BME280;11491;41.942;24.220;2023-02-28T08:45:30;90428.16;;;12.27;65.23
22649;BME280;11491;41.942;24.220;2023-02-28T08:47:57;90431.59;;;12.40;65.09
22649;BME280;11491;41.942;24.220;2023-02-28T08:50:23;90424.16;;;12.49;65.16
22649;BME280;11491;41.942;24.220;2023-02-28T08:52:50;90435.09;;;12.56;64.71
22649;BME280;11491;41.942;24.220;2023-02-28T08:55:17;90436.00;;;12.76;63.88
22649;BME280;11491;41.942;24.220;2023-02-28T08:57:44;90433.72;;;12.62;64.09
22649;BME280;11491;41.942;24.220;2023-02-28T09:00:13;90434.09;;;12.77;64.70
22649;BME280;11491;41.942;24.220;2023-02-28T09:02:40;90442.28;;;12.52;63.56
22649;BME280;11491;41.942;24.220;2023-02-28T09:05:09;90441.19;;;12.00;66.08
22649;BME280;11491;41.942;24.220;2023-02-28T09:07:35;90439.97;;;11.85;67.15
22649;BME280;11491;41.942;24.220;2023-02-28T09:10:03;90440.22;;;11.43;68.60
22649;BME280;11491;41.942;24.220;2023-02-28T09:12:33;90445.13;;;11.17;69.49
22649;BME280;11491;41.942;24.220;2023-02-28T09:15:00;90434.84;;;10.94;69.59
22649;BME280;11491;41.942;24.220;2023-02-28T09:17:28;90433.16;;;10.90;71.31
22649;BME280;11491;41.942;24.220;2023-02-28T09:19:54;90417.13;;;11.14;71.06
22649;BME280;11491;41.942;24.220;2023-02-28T09:22:22;90428.16;;;11.50;70.17
22649;BME280;11491;41.942;24.220;2023-02-28T09:24:49;90425.91;;;11.76;69.47
22649;BME280;11491;41.942;24.220;2023-02-28T09:27:15;90418.69;;;12.17;67.70
22649;BME280;11491;41.942;24.220;2023-02-28T09:29:42;90424.34;;;12.56;67.35
22649;BME280;11491;41.942;24.220;2023-02-28T09:32:09;90410.88;;;12.68;65.54
22649;BME280;11491;41.942;24.220;2023-02-28T09:34:37;90414.00;;;12.70;66.03
22649;BME280;11491;41.942;24.220;2023-02-28T09:37:04;90410.25;;;13.03;65.57
22649;BME280;11491;41.942;24.220;2023-02-28T09:39:31;90403.78;;;13.52;63.59
22649;BME280;11491;41.942;24.220;2023-02-28T09:41:58;90405.78;;;13.39;63.79
22649;BME280;11491;41.942;24.220;2023-02-28T09:44:28;90411.78;;;13.68;64.05
22649;BME280;11491;41.942;24.220;2023-02-28T09:46:59;90413.03;;;14.25;62.16
22649;BME280;11491;41.942;24.220;2023-02-28T09:49:33;90411.78;;;13.68;60.46
22649;BME280;11491;41.942;24.220;2023-02-28T09:52:09;90413.69;;;12.88;63.74
22649;BME280;11491;41.942;24.220;2023-02-28T09:54:37;90395.41;;;12.34;65.26
22649;BME280;11491;41.942;24.220;2023-02-28T09:57:08;90400.25;;;12.28;66.36
22649;BME280;11491;41.942;24.220;2023-02-28T09:59:53;90406.91;;;12.62;65.77
22649;BME280;11491;41.942;24.220;2023-02-28T10:02:47;90400.56;;;12.26;65.45
22649;BME280;11491;41.942;24.220;2023-02-28T10:05:20;90394.91;;;11.88;67.20
22649;BME280;11491;41.942;24.220;2023-02-28T10:07:59;90403.59;;;11.72;67.92
22649;BME280;11491;41.942;24.220;2023-02-28T10:10:30;90410.41;;;11.70;68.06
22649;BME280;11491;41.942;24.220;2023-02-28T10:13:02;90400.53;;;11.09;69.71
22649;BME280;11491;41.942;24.220;2023-02-28T10:15:32;90404.91;;;10.68;70.94
22649;BME280;11491;41.942;24.220;2023-02-28T10:18:02;90414.75;;;10.43;71.69
22649;BME280;11491;41.942;24.220;2023-02-28T10:20:33;90407.59;;;10.13;72.68
22649;BME280;11491;41.942;24.220;2023-02-28T10:23:07;90411.22;;;9.76;74.63
22649;BME280;11491;41.942;24.220;2023-02-28T10:25:37;90410.28;;;9.30;76.73
22649;BME280;11491;41.942;24.220;2023-02-28T10:28:12;90408.47;;;9.13;78.04
22649;BME280;11491;41.942;24.220;2023-02-28T10:30:41;90400.56;;;8.87;79.66
22649;BME280;11491;41.942;24.220;2023-02-28T10:33:17;90409.13;;;8.71;80.41
22649;BME280;11491;41.942;24.220;2023-02-28T10:35:45;90399.75;;;8.56;81.06
22649;BME280;11491;41.942;24.220;2023-02-28T10:38:17;90404.44;;;8.68;81.20
22649;BME280;11491;41.942;24.220;2023-02-28T10:40:44;90397.75;;;8.53;81.97
22649;BME280;11491;41.942;24.220;2023-02-28T10:43:20;90385.06;;;8.50;82.61
22649;BME280;11491;41.942;24.220;2023-02-28T10:45:59;90392.88;;;8.47;82.74
22649;BME280;11491;41.942;24.220;2023-02-28T10:48:33;90395.88;;;8.36;83.49
22649;BME280;11491;41.942;24.220;2023-02-28T10:51:01;90395.72;;;8.24;84.07
22649;BME280;11491;41.942;24.220;2023-02-28T10:53:36;90395.91;;;8.28;84.39
22649;BME280;11491;41.942;24.220;2023-02-28T10:56:05;90383.66;;;8.35;85.49
22649;BME280;11491;41.942;24.220;2023-02-28T10:58:47;90388.50;;;8.51;85.56
22649;BME280;11491;41.942;24.220;2023-02-28T11:01:16;90385.66;;;8.56;84.71
22649;BME280;11491;41.942;24.220;2023-02-28T11:03:43;90375.28;;;8.63;85.44
22649;BME280;11491;41.942;24.220;2023-02-28T11:06:15;90369.66;;;8.56;85.63
22649;BME280;11491;41.942;24.220;2023-02-28T11:08:50;90373.47;;;8.37;85.89
22649;BME280;11491;41.942;24.220;2023-02-28T11:11:20;90369.09;;;8.24;87.13
22649;BME280;11491;41.942;24.220;2023-02-28T11:13:52;90371.75;;;8.24;87.85
22649;BME280;11491;41.942;24.220;2023-02-28T11:16:20;90374.47;;;8.07;88.06
22649;BME280;11491;41.942;24.220;2023-02-28T11:18:49;90374.00;;;8.05;88.47
22649;BME280;11491;41.942;24.220;2023-02-28T11:21:19;90375.13;;;7.86;88.71
22649;BME280;11491;41.942;24.220;2023-02-28T11:23:49;90357.63;;;7.68;89.53
22649;BME280;11491;41.942;24.220;2023-02-28T11:26:36;90367.00;;;7.74;90.54
22649;BME280;11491;41.942;24.220;2023-02-28T11:29:17;90367.00;;;7.74;91.48
22649;BME280;11491;41.942;24.220;2023-02-28T11:32:01;90367.94;;;7.61;91.32
22649;BME280;11491;41.942;24.220;2023-02-28T11:34:29;90364.81;;;7.59;92.42
22649;BME280;11491;41.942;24.220;2023-02-28T11:36:57;90356.03;;;7.67;93.82
22649;BME280;11491;41.942;24.220;2023-02-28T11:39:27;90350.56;;;7.63;93.91
22649;BME280;11491;41.942;24.220;2023-02-28T11:42:16;90358.53;;;7.72;92.76
22649;BME280;11491;41.942;24.220;2023-02-28T11:44:58;90349.78;;;7.80;92.83
22649;BME280;11491;41.942;24.220;2023-02-28T11:47:35;90344.31;;;7.68;92.97
22649;BME280;11491;41.942;24.220;2023-02-28T11:50:16;90350.69;;;7.84;93.49
22649;BME280;11491;41.942;24.220;2023-02-28T11:52:52;90354.59;;;7.87;93.31
22649;BME280;11491;41.942;24.220;2023-02-28T11:55:24;90349.09;;;8.01;92.67
22649;BME280;11491;41.942;24.220;2023-02-28T11:58:17;90348.78;;;8.11;92.15
22649;BME280;11491;41.942;24.220;2023-02-28T12:01:01;90357.22;;;8.13;92.16
22649;BME280;11491;41.942;24.220;2023-02-28T12:03:37;90354.06;;;8.19;91.03
22649;BME280;11491;41.942;24.220;2023-02-28T12:06:15;90346.41;;;8.18;89.95
22649;BME280;11491;41.942;24.220;2023-02-28T12:08:51;90331.88;;;7.89;90.48
22649;BME280;11491;41.942;24.220;2023-02-28T12:11:31;90342.72;;;7.93;91.71
22649;BME280;11491;41.942;24.220;2023-02-28T12:14:24;90335.03;;;7.91;90.08
22649;BME280;11491;41.942;24.220;2023-02-28T12:17:02;90340.69;;;7.81;90.89
22649;BME280;11491;41.942;24.220;2023-02-28T12:19:41;90340.81;;;7.85;91.56
22649;BME280;11491;41.942;24.220;2023-02-28T12:22:27;90354.13;;;7.93;91.06
22649;BME280;11491;41.942;24.220;2023-02-28T12:25:14;90344.88;;;7.99;91.01
22649;BME280;11491;41.942;24.220;2023-02-28T12:27:46;90341.94;;;7.84;91.10
22649;BME280;11491;41.942;24.220;2023-02-28T12:30:17;90351.31;;;7.98;91.25
22649;BME280;11491;41.942;24.220;2023-02-28T12:32:48;90343.47;;;7.93;90.70
22649;BME280;11491;41.942;24.220;2023-02-28T12:35:19;90334.38;;;7.94;91.08
22649;BME280;11491;41.942;24.220;2023-02-28T12:37:52;90344.44;;;7.97;90.52
22649;BME280;11491;41.942;24.220;2023-02-28T12:40:23;90342.50;;;8.07;90.10
22649;BME280;11491;41.942;24.220;2023-02-28T12:42:57;90335.47;;;8.02;89.43
22649;BME280;11491;41.942;24.220;2023-02-28T12:45:27;90336.88;;;7.99;89.86
22649;BME280;11491;41.942;24.220;2023-02-28T12:47:59;90336.72;;;8.05;89.72
22649;BME280;11491;41.942;24.220;2023-02-28T12:50:28;90332.50;;;8.04;89.62
22649;BME280;11491;41.942;24.220;2023-02-28T12:53:01;90338.47;;;8.01;89.49
22649;BME280;11491;41.942;24.220;2023-02-28T12:55:38;90327.66;;;7.97;89.41
22649;BME280;11491;41.942;24.220;2023-02-28T12:58:13;90321.72;;;7.91;89.31
22649;BME280;11491;41.942;24.220;2023-02-28T13:00:55;90317.84;;;7.80;89.95
22649;BME280;11491;41.942;24.220;2023-02-28T13:03:45;90323.94;;;7.81;90.70
22649;BME280;11491;41.942;24.220;2023-02-28T13:06:28;90309.06;;;7.71;90.13
22649;BME280;11491;41.942;24.220;2023-02-28T13:09:05;90316.25;;;7.79;89.66
22649;BME280;11491;41.942;24.220;2023-02-28T13:11:39;90323.75;;;7.77;90.72
22649;BME280;11491;41.942;24.220;2023-02-28T13:14:19;90319.09;;;7.74;91.19
22649;BME280;11491;41.942;24.220;2023-02-28T13:16:53;90316.56;;;7.77;91.32
22649;BME280;11491;41.942;24.220;2023-02-28T13:19:22;90318.44;;;7.77;90.85
22649;BME280;11491;41.942;24.220;2023-02-28T13:21:52;90316.13;;;7.75;90.33
22649;BME280;11491;41.942;24.220;2023-02-28T13:24:42;90315.03;;;7.68;89.89